16°C Temp
15°C Dewpoint
94% Humidity
Temperature
11 KM/H
7 MPH
6 KTS
50°
North East

Wind Speed
Mostly Scattered
Clouds
Pressure 1011.82 (hPa) - 29.88 (in)
Visibility 8.1 (mi) - 13.0 (km)

Current Conditions
CYZE
Location 50(km)
Metar :CYZE 312037Z AUTO 05006KT 8SM SCT004 SCT010 OVC023 16/15 A2988 RMK SLP120 DENSITY ALT 900FT
Sat 31st July 16:37 pm

Airport
  Metar Aviation API Data Provided by https://www.checkwx.com/ PHP scripts by weather34.com ©2021